sensor_id;sensor_type;location;lat;lon;timestamp;P1;durP1;ratioP1;P2;durP2;ratioP2
77091;SDS011;66032;48.252;11.638;2023-02-16T00:00:21;14.73;;;8.60;;
77091;SDS011;66032;48.252;11.638;2023-02-16T00:02:52;54.75;;;11.02;;
77091;SDS011;66032;48.252;11.638;2023-02-16T00:07:55;17.13;;;8.75;;
77091;SDS011;66032;48.252;11.638;2023-02-16T00:10:23;30.75;;;10.57;;
77091;SDS011;66032;48.252;11.638;2023-02-16T00:12:52;45.55;;;10.85;;
77091;SDS011;66032;48.252;11.638;2023-02-16T00:15:38;13.05;;;7.55;;
77091;SDS011;66032;48.252;11.638;2023-02-16T00:18:17;33.80;;;10.43;;
77091;SDS011;66032;48.252;11.638;2023-02-16T00:20:47;30.42;;;8.73;;
77091;SDS011;66032;48.252;11.638;2023-02-16T00:23:15;22.48;;;8.43;;
77091;SDS011;66032;48.252;11.638;2023-02-16T00:25:42;16.95;;;8.55;;
77091;SDS011;66032;48.252;11.638;2023-02-16T00:28:12;30.52;;;8.52;;
77091;SDS011;66032;48.252;11.638;2023-02-16T00:30:43;40.75;;;9.52;;
77091;SDS011;66032;48.252;11.638;2023-02-16T00:33:16;32.83;;;9.30;;
77091;SDS011;66032;48.252;11.638;2023-02-16T00:35:45;22.38;;;8.98;;
77091;SDS011;66032;48.252;11.638;2023-02-16T00:38:14;11.68;;;6.35;;
77091;SDS011;66032;48.252;11.638;2023-02-16T00:40:42;18.50;;;7.47;;
77091;SDS011;66032;48.252;11.638;2023-02-16T00:43:21;10.18;;;5.85;;
77091;SDS011;66032;48.252;11.638;2023-02-16T00:45:52;11.18;;;6.57;;
77091;SDS011;66032;48.252;11.638;2023-02-16T00:48:20;41.35;;;9.25;;
77091;SDS011;66032;48.252;11.638;2023-02-16T00:50:52;7.93;;;4.90;;
77091;SDS011;66032;48.252;11.638;2023-02-16T00:53:19;16.83;;;7.32;;
77091;SDS011;66032;48.252;11.638;2023-02-16T00:55:46;13.05;;;7.30;;
77091;SDS011;66032;48.252;11.638;2023-02-16T00:58:20;30.17;;;9.10;;
77091;SDS011;66032;48.252;11.638;2023-02-16T01:00:57;12.93;;;7.13;;
77091;SDS011;66032;48.252;11.638;2023-02-16T01:03:32;13.35;;;7.30;;
77091;SDS011;66032;48.252;11.638;2023-02-16T01:05:59;19.80;;;8.95;;
77091;SDS011;66032;48.252;11.638;2023-02-16T01:08:48;14.23;;;8.20;;
77091;SDS011;66032;48.252;11.638;2023-02-16T01:11:34;24.17;;;8.18;;
77091;SDS011;66032;48.252;11.638;2023-02-16T01:14:01;12.15;;;7.05;;
77091;SDS011;66032;48.252;11.638;2023-02-16T01:16:35;24.35;;;8.30;;
77091;SDS011;66032;48.252;11.638;2023-02-16T01:19:05;12.88;;;6.88;;
77091;SDS011;66032;48.252;11.638;2023-02-16T01:21:33;19.73;;;7.68;;
77091;SDS011;66032;48.252;11.638;2023-02-16T01:24:00;10.82;;;6.93;;
77091;SDS011;66032;48.252;11.638;2023-02-16T01:26:27;11.40;;;6.50;;
77091;SDS011;66032;48.252;11.638;2023-02-16T01:28:55;24.15;;;8.25;;
77091;SDS011;66032;48.252;11.638;2023-02-16T01:31:23;54.15;;;9.80;;
77091;SDS011;66032;48.252;11.638;2023-02-16T01:33:50;16.65;;;7.68;;
77091;SDS011;66032;48.252;11.638;2023-02-16T01:36:20;15.63;;;7.32;;
77091;SDS011;66032;48.252;11.638;2023-02-16T01:39:00;19.33;;;7.47;;
77091;SDS011;66032;48.252;11.638;2023-02-16T01:44:22;8.85;;;5.20;;
77091;SDS011;66032;48.252;11.638;2023-02-16T01:46:58;13.15;;;7.25;;
77091;SDS011;66032;48.252;11.638;2023-02-16T01:49:36;12.55;;;6.85;;
77091;SDS011;66032;48.252;11.638;2023-02-16T01:57:32;10.10;;;5.88;;
77091;SDS011;66032;48.252;11.638;2023-02-16T02:00:04;12.35;;;7.43;;
77091;SDS011;66032;48.252;11.638;2023-02-16T02:02:53;11.48;;;6.55;;
77091;SDS011;66032;48.252;11.638;2023-02-16T02:05:47;18.33;;;6.35;;
77091;SDS011;66032;48.252;11.638;2023-02-16T02:08:20;10.63;;;6.40;;
77091;SDS011;66032;48.252;11.638;2023-02-16T02:16:35;8.50;;;5.05;;
77091;SDS011;66032;48.252;11.638;2023-02-16T02:19:02;9.25;;;5.53;;
77091;SDS011;66032;48.252;11.638;2023-02-16T02:21:40;9.25;;;5.88;;
77091;SDS011;66032;48.252;11.638;2023-02-16T02:33:09;31.83;;;6.75;;
77091;SDS011;66032;48.252;11.638;2023-02-16T02:35:49;5.82;;;3.70;;
77091;SDS011;66032;48.252;11.638;2023-02-16T02:38:39;10.25;;;6.38;;
77091;SDS011;66032;48.252;11.638;2023-02-16T02:41:27;8.38;;;4.68;;
77091;SDS011;66032;48.252;11.638;2023-02-16T02:46:46;10.45;;;6.68;;
77091;SDS011;66032;48.252;11.638;2023-02-16T02:49:17;14.75;;;6.55;;
77091;SDS011;66032;48.252;11.638;2023-02-16T02:51:44;10.68;;;6.22;;
77091;SDS011;66032;48.252;11.638;2023-02-16T02:54:18;7.15;;;4.18;;
77091;SDS011;66032;48.252;11.638;2023-02-16T03:03:22;60.72;;;9.40;;
77091;SDS011;66032;48.252;11.638;2023-02-16T03:06:01;8.88;;;5.53;;
77091;SDS011;66032;48.252;11.638;2023-02-16T03:08:32;15.75;;;8.02;;
77091;SDS011;66032;48.252;11.638;2023-02-16T03:11:05;15.60;;;6.65;;
77091;SDS011;66032;48.252;11.638;2023-02-16T03:13:57;10.63;;;6.53;;
77091;SDS011;66032;48.252;11.638;2023-02-16T03:16:33;8.98;;;5.15;;
77091;SDS011;66032;48.252;11.638;2023-02-16T03:19:04;9.30;;;5.45;;
77091;SDS011;66032;48.252;11.638;2023-02-16T03:21:53;65.30;;;10.23;;
77091;SDS011;66032;48.252;11.638;2023-02-16T03:24:41;9.35;;;6.07;;
77091;SDS011;66032;48.252;11.638;2023-02-16T03:27:28;8.43;;;5.25;;
77091;SDS011;66032;48.252;11.638;2023-02-16T03:30:17;9.82;;;6.05;;
77091;SDS011;66032;48.252;11.638;2023-02-16T03:32:47;8.80;;;4.97;;
77091;SDS011;66032;48.252;11.638;2023-02-16T03:35:15;12.25;;;7.10;;
77091;SDS011;66032;48.252;11.638;2023-02-16T03:37:42;14.98;;;8.38;;
77091;SDS011;66032;48.252;11.638;2023-02-16T03:40:12;27.65;;;9.25;;
77091;SDS011;66032;48.252;11.638;2023-02-16T03:43:01;11.75;;;6.60;;
77091;SDS011;66032;48.252;11.638;2023-02-16T03:45:31;25.73;;;8.40;;
77091;SDS011;66032;48.252;11.638;2023-02-16T03:48:03;15.00;;;7.97;;
77091;SDS011;66032;48.252;11.638;2023-02-16T03:50:31;8.63;;;4.75;;
77091;SDS011;66032;48.252;11.638;2023-02-16T03:52:58;14.52;;;9.02;;
77091;SDS011;66032;48.252;11.638;2023-02-16T03:55:36;11.38;;;7.38;;
77091;SDS011;66032;48.252;11.638;2023-02-16T03:58:09;10.50;;;5.15;;
77091;SDS011;66032;48.252;11.638;2023-02-16T04:00:37;16.60;;;7.18;;
77091;SDS011;66032;48.252;11.638;2023-02-16T04:03:05;12.48;;;7.20;;
77091;SDS011;66032;48.252;11.638;2023-02-16T04:05:34;11.77;;;7.03;;
77091;SDS011;66032;48.252;11.638;2023-02-16T04:08:02;12.68;;;7.68;;
77091;SDS011;66032;48.252;11.638;2023-02-16T04:10:29;13.68;;;7.70;;
77091;SDS011;66032;48.252;11.638;2023-02-16T04:12:57;9.82;;;6.22;;
77091;SDS011;66032;48.252;11.638;2023-02-16T04:15:25;9.25;;;5.63;;
77091;SDS011;66032;48.252;11.638;2023-02-16T04:17:54;7.53;;;4.82;;
77091;SDS011;66032;48.252;11.638;2023-02-16T04:20:23;7.50;;;4.30;;
77091;SDS011;66032;48.252;11.638;2023-02-16T04:22:52;8.73;;;5.53;;
77091;SDS011;66032;48.252;11.638;2023-02-16T04:25:19;13.38;;;7.25;;
77091;SDS011;66032;48.252;11.638;2023-02-16T04:27:47;17.85;;;6.32;;
77091;SDS011;66032;48.252;11.638;2023-02-16T04:30:17;15.40;;;7.90;;
77091;SDS011;66032;48.252;11.638;2023-02-16T04:32:46;23.83;;;7.93;;
77091;SDS011;66032;48.252;11.638;2023-02-16T04:35:14;31.88;;;9.38;;
77091;SDS011;66032;48.252;11.638;2023-02-16T04:37:42;11.30;;;6.70;;
77091;SDS011;66032;48.252;11.638;2023-02-16T04:40:10;10.32;;;6.18;;
77091;SDS011;66032;48.252;11.638;2023-02-16T04:42:39;16.92;;;8.82;;
77091;SDS011;66032;48.252;11.638;2023-02-16T04:45:08;13.68;;;7.72;;
77091;SDS011;66032;48.252;11.638;2023-02-16T04:47:36;14.45;;;8.52;;
77091;SDS011;66032;48.252;11.638;2023-02-16T04:50:03;28.08;;;8.98;;
77091;SDS011;66032;48.252;11.638;2023-02-16T04:52:31;39.25;;;8.70;;
77091;SDS011;66032;48.252;11.638;2023-02-16T04:54:59;46.58;;;9.27;;
77091;SDS011;66032;48.252;11.638;2023-02-16T04:57:27;38.83;;;8.15;;
77091;SDS011;66032;48.252;11.638;2023-02-16T04:59:54;58.95;;;9.20;;
77091;SDS011;66032;48.252;11.638;2023-02-16T05:02:21;21.98;;;8.20;;
77091;SDS011;66032;48.252;11.638;2023-02-16T05:04:48;35.83;;;8.98;;
77091;SDS011;66032;48.252;11.638;2023-02-16T05:07:16;16.88;;;8.00;;
77091;SDS011;66032;48.252;11.638;2023-02-16T05:09:43;11.65;;;7.00;;
77091;SDS011;66032;48.252;11.638;2023-02-16T05:12:10;14.68;;;7.05;;
77091;SDS011;66032;48.252;11.638;2023-02-16T05:14:55;10.55;;;6.72;;
77091;SDS011;66032;48.252;11.638;2023-02-16T05:17:23;14.35;;;7.80;;
77091;SDS011;66032;48.252;11.638;2023-02-16T05:19:54;26.95;;;8.80;;
77091;SDS011;66032;48.252;11.638;2023-02-16T05:22:24;17.33;;;7.80;;
77091;SDS011;66032;48.252;11.638;2023-02-16T05:24:54;10.18;;;5.90;;
77091;SDS011;66032;48.252;11.638;2023-02-16T05:27:23;13.23;;;7.53;;
77091;SDS011;66032;48.252;11.638;2023-02-16T05:29:52;14.75;;;8.20;;
77091;SDS011;66032;48.252;11.638;2023-02-16T05:32:19;18.95;;;8.60;;
77091;SDS011;66032;48.252;11.638;2023-02-16T05:34:47;30.25;;;9.38;;
77091;SDS011;66032;48.252;11.638;2023-02-16T05:37:15;11.23;;;6.03;;
77091;SDS011;66032;48.252;11.638;2023-02-16T05:39:43;17.90;;;7.75;;
77091;SDS011;66032;48.252;11.638;2023-02-16T05:42:11;13.88;;;7.22;;
77091;SDS011;66032;48.252;11.638;2023-02-16T05:44:38;14.38;;;7.60;;
77091;SDS011;66032;48.252;11.638;2023-02-16T05:47:06;10.55;;;5.80;;
77091;SDS011;66032;48.252;11.638;2023-02-16T05:49:33;14.93;;;8.65;;
77091;SDS011;66032;48.252;11.638;2023-02-16T05:52:00;10.68;;;5.55;;
77091;SDS011;66032;48.252;11.638;2023-02-16T05:54:27;11.88;;;6.88;;
77091;SDS011;66032;48.252;11.638;2023-02-16T05:56:55;17.27;;;7.72;;
77091;SDS011;66032;48.252;11.638;2023-02-16T05:59:22;16.20;;;8.82;;
77091;SDS011;66032;48.252;11.638;2023-02-16T06:01:49;12.05;;;6.95;;
77091;SDS011;66032;48.252;11.638;2023-02-16T06:04:18;9.73;;;5.53;;
77091;SDS011;66032;48.252;11.638;2023-02-16T06:06:47;9.70;;;5.18;;
77091;SDS011;66032;48.252;11.638;2023-02-16T06:09:14;10.60;;;4.95;;
77091;SDS011;66032;48.252;11.638;2023-02-16T06:11:41;14.38;;;7.75;;
77091;SDS011;66032;48.252;11.638;2023-02-16T06:14:12;13.45;;;7.90;;
77091;SDS011;66032;48.252;11.638;2023-02-16T06:16:43;13.52;;;7.57;;
77091;SDS011;66032;48.252;11.638;2023-02-16T06:19:13;11.82;;;7.47;;
77091;SDS011;66032;48.252;11.638;2023-02-16T06:21:41;13.85;;;8.27;;
77091;SDS011;66032;48.252;11.638;2023-02-16T06:24:09;8.68;;;5.32;;
77091;SDS011;66032;48.252;11.638;2023-02-16T06:26:38;5.93;;;3.78;;
77091;SDS011;66032;48.252;11.638;2023-02-16T06:29:05;9.68;;;5.63;;
77091;SDS011;66032;48.252;11.638;2023-02-16T06:31:33;12.82;;;7.65;;
77091;SDS011;66032;48.252;11.638;2023-02-16T06:34:02;14.93;;;8.43;;
77091;SDS011;66032;48.252;11.638;2023-02-16T06:36:30;14.70;;;9.18;;
77091;SDS011;66032;48.252;11.638;2023-02-16T06:38:58;13.25;;;7.93;;
77091;SDS011;66032;48.252;11.638;2023-02-16T06:41:25;13.40;;;8.48;;
77091;SDS011;66032;48.252;11.638;2023-02-16T06:44:07;11.73;;;6.82;;
77091;SDS011;66032;48.252;11.638;2023-02-16T06:46:41;10.38;;;6.88;;
77091;SDS011;66032;48.252;11.638;2023-02-16T06:49:13;11.93;;;6.95;;
77091;SDS011;66032;48.252;11.638;2023-02-16T06:51:42;12.02;;;7.05;;
77091;SDS011;66032;48.252;11.638;2023-02-16T06:54:10;11.57;;;6.90;;
77091;SDS011;66032;48.252;11.638;2023-02-16T06:56:38;10.52;;;6.45;;
77091;SDS011;66032;48.252;11.638;2023-02-16T06:59:05;11.23;;;6.45;;
77091;SDS011;66032;48.252;11.638;2023-02-16T07:01:33;10.00;;;6.63;;
77091;SDS011;66032;48.252;11.638;2023-02-16T07:04:01;11.77;;;7.45;;
77091;SDS011;66032;48.252;11.638;2023-02-16T07:06:28;10.85;;;6.60;;
77091;SDS011;66032;48.252;11.638;2023-02-16T07:08:56;7.97;;;5.25;;
77091;SDS011;66032;48.252;11.638;2023-02-16T07:11:25;8.60;;;5.05;;
77091;SDS011;66032;48.252;11.638;2023-02-16T07:13:52;10.85;;;7.20;;
77091;SDS011;66032;48.252;11.638;2023-02-16T07:16:19;10.13;;;6.97;;
77091;SDS011;66032;48.252;11.638;2023-02-16T07:18:47;9.63;;;6.10;;
77091;SDS011;66032;48.252;11.638;2023-02-16T07:21:14;7.28;;;5.30;;
77091;SDS011;66032;48.252;11.638;2023-02-16T07:23:41;6.93;;;4.82;;
77091;SDS011;66032;48.252;11.638;2023-02-16T07:26:09;8.02;;;5.60;;
77091;SDS011;66032;48.252;11.638;2023-02-16T07:28:36;7.55;;;5.18;;
77091;SDS011;66032;48.252;11.638;2023-02-16T07:31:10;7.90;;;5.95;;
77091;SDS011;66032;48.252;11.638;2023-02-16T07:33:39;8.25;;;5.85;;
77091;SDS011;66032;48.252;11.638;2023-02-16T07:36:07;7.70;;;5.80;;
77091;SDS011;66032;48.252;11.638;2023-02-16T07:38:35;8.50;;;5.78;;
77091;SDS011;66032;48.252;11.638;2023-02-16T07:41:04;9.23;;;6.10;;
77091;SDS011;66032;48.252;11.638;2023-02-16T07:43:35;8.25;;;5.97;;
77091;SDS011;66032;48.252;11.638;2023-02-16T07:46:04;8.45;;;6.35;;
77091;SDS011;66032;48.252;11.638;2023-02-16T07:48:31;9.00;;;6.80;;
77091;SDS011;66032;48.252;11.638;2023-02-16T07:50:59;8.63;;;6.55;;
77091;SDS011;66032;48.252;11.638;2023-02-16T07:53:27;9.60;;;7.40;;
77091;SDS011;66032;48.252;11.638;2023-02-16T07:55:55;10.05;;;6.85;;
77091;SDS011;66032;48.252;11.638;2023-02-16T07:58:22;9.80;;;5.97;;
77091;SDS011;66032;48.252;11.638;2023-02-16T08:01:04;8.75;;;6.55;;
77091;SDS011;66032;48.252;11.638;2023-02-16T08:03:41;7.60;;;5.40;;
77091;SDS011;66032;48.252;11.638;2023-02-16T08:06:08;5.88;;;4.72;;
77091;SDS011;66032;48.252;11.638;2023-02-16T08:08:36;7.25;;;5.20;;
77091;SDS011;66032;48.252;11.638;2023-02-16T08:11:08;6.82;;;5.40;;
77091;SDS011;66032;48.252;11.638;2023-02-16T08:13:37;8.27;;;5.97;;
77091;SDS011;66032;48.252;11.638;2023-02-16T08:16:12;6.65;;;5.55;;
77091;SDS011;66032;48.252;11.638;2023-02-16T08:18:47;6.20;;;5.00;;
77091;SDS011;66032;48.252;11.638;2023-02-16T08:21:17;8.05;;;5.38;;
77091;SDS011;66032;48.252;11.638;2023-02-16T08:26:25;9.60;;;6.40;;
77091;SDS011;66032;48.252;11.638;2023-02-16T08:28:55;7.60;;;6.50;;
77091;SDS011;66032;48.252;11.638;2023-02-16T08:31:25;7.30;;;5.72;;
77091;SDS011;66032;48.252;11.638;2023-02-16T08:33:56;8.75;;;6.18;;
77091;SDS011;66032;48.252;11.638;2023-02-16T08:36:27;8.30;;;7.07;;
77091;SDS011;66032;48.252;11.638;2023-02-16T08:38:58;9.95;;;7.72;;
77091;SDS011;66032;48.252;11.638;2023-02-16T08:41:33;8.82;;;7.38;;
77091;SDS011;66032;48.252;11.638;2023-02-16T08:44:02;9.30;;;7.30;;
77091;SDS011;66032;48.252;11.638;2023-02-16T08:46:30;10.52;;;7.70;;
77091;SDS011;66032;48.252;11.638;2023-02-16T08:49:00;12.43;;;7.57;;
77091;SDS011;66032;48.252;11.638;2023-02-16T08:51:29;8.88;;;7.70;;
77091;SDS011;66032;48.252;11.638;2023-02-16T08:54:00;9.90;;;7.80;;
77091;SDS011;66032;48.252;11.638;2023-02-16T08:56:31;10.88;;;6.95;;
77091;SDS011;66032;48.252;11.638;2023-02-16T08:59:01;9.68;;;7.35;;
77091;SDS011;66032;48.252;11.638;2023-02-16T09:01:28;11.10;;;7.80;;
77091;SDS011;66032;48.252;11.638;2023-02-16T09:03:56;12.18;;;7.80;;
77091;SDS011;66032;48.252;11.638;2023-02-16T09:06:24;12.18;;;7.90;;
77091;SDS011;66032;48.252;11.638;2023-02-16T09:08:52;13.50;;;8.13;;
77091;SDS011;66032;48.252;11.638;2023-02-16T09:11:23;10.00;;;7.25;;
77091;SDS011;66032;48.252;11.638;2023-02-16T09:13:51;9.70;;;6.50;;
77091;SDS011;66032;48.252;11.638;2023-02-16T09:16:20;7.63;;;5.80;;
77091;SDS011;66032;48.252;11.638;2023-02-16T09:18:49;8.23;;;6.57;;
77091;SDS011;66032;48.252;11.638;2023-02-16T09:21:22;7.90;;;6.18;;
77091;SDS011;66032;48.252;11.638;2023-02-16T09:23:52;8.25;;;5.85;;
77091;SDS011;66032;48.252;11.638;2023-02-16T09:26:22;8.35;;;5.40;;
77091;SDS011;66032;48.252;11.638;2023-02-16T09:28:51;9.18;;;6.82;;
77091;SDS011;66032;48.252;11.638;2023-02-16T09:31:20;11.60;;;8.10;;
77091;SDS011;66032;48.252;11.638;2023-02-16T09:33:56;8.30;;;6.40;;
77091;SDS011;66032;48.252;11.638;2023-02-16T09:36:29;11.45;;;7.20;;
77091;SDS011;66032;48.252;11.638;2023-02-16T09:38:57;8.52;;;6.20;;
77091;SDS011;66032;48.252;11.638;2023-02-16T09:41:35;8.90;;;6.00;;
77091;SDS011;66032;48.252;11.638;2023-02-16T09:47:00;8.63;;;6.45;;
77091;SDS011;66032;48.252;11.638;2023-02-16T09:49:34;10.52;;;7.55;;
77091;SDS011;66032;48.252;11.638;2023-02-16T09:55:01;12.25;;;8.20;;
77091;SDS011;66032;48.252;11.638;2023-02-16T10:05:46;9.50;;;7.20;;
77091;SDS011;66032;48.252;11.638;2023-02-16T10:08:23;9.52;;;7.40;;
77091;SDS011;66032;48.252;11.638;2023-02-16T10:10:59;9.63;;;6.97;;
77091;SDS011;66032;48.252;11.638;2023-02-16T10:14:26;12.63;;;7.72;;
77091;SDS011;66032;48.252;11.638;2023-02-16T10:20:16;10.63;;;6.68;;
77091;SDS011;66032;48.252;11.638;2023-02-16T10:22:51;9.27;;;6.60;;
77091;SDS011;66032;48.252;11.638;2023-02-16T10:28:16;11.45;;;7.10;;
77091;SDS011;66032;48.252;11.638;2023-02-16T10:33:36;9.95;;;7.25;;
77091;SDS011;66032;48.252;11.638;2023-02-16T10:36:13;13.15;;;8.13;;
77091;SDS011;66032;48.252;11.638;2023-02-16T10:41:37;10.40;;;6.75;;
77091;SDS011;66032;48.252;11.638;2023-02-16T10:44:12;11.25;;;7.47;;
77091;SDS011;66032;48.252;11.638;2023-02-16T10:46:53;11.00;;;7.38;;
77091;SDS011;66032;48.252;11.638;2023-02-16T10:49:25;13.80;;;8.70;;
77091;SDS011;66032;48.252;11.638;2023-02-16T10:51:55;12.60;;;8.35;;
77091;SDS011;66032;48.252;11.638;2023-02-16T10:54:26;14.40;;;8.40;;
77091;SDS011;66032;48.252;11.638;2023-02-16T10:57:07;13.13;;;8.80;;
77091;SDS011;66032;48.252;11.638;2023-02-16T10:59:45;14.05;;;8.90;;
77091;SDS011;66032;48.252;11.638;2023-02-16T11:02:18;12.80;;;7.60;;
77091;SDS011;66032;48.252;11.638;2023-02-16T11:04:50;10.40;;;6.90;;
77091;SDS011;66032;48.252;11.638;2023-02-16T11:07:19;12.65;;;8.00;;
77091;SDS011;66032;48.252;11.638;2023-02-16T11:09:52;12.65;;;8.13;;
77091;SDS011;66032;48.252;11.638;2023-02-16T11:14:54;13.83;;;8.13;;
77091;SDS011;66032;48.252;11.638;2023-02-16T11:17:26;11.88;;;7.75;;
77091;SDS011;66032;48.252;11.638;2023-02-16T11:19:55;14.52;;;9.20;;
77091;SDS011;66032;48.252;11.638;2023-02-16T11:22:29;13.23;;;7.57;;
77091;SDS011;66032;48.252;11.638;2023-02-16T11:25:26;22.77;;;15.40;;
77091;SDS011;66032;48.252;11.638;2023-02-16T11:28:02;12.80;;;7.22;;
77091;SDS011;66032;48.252;11.638;2023-02-16T11:30:35;13.75;;;7.97;;
77091;SDS011;66032;48.252;11.638;2023-02-16T11:33:23;12.18;;;7.47;;
77091;SDS011;66032;48.252;11.638;2023-02-16T11:35:55;10.73;;;6.15;;
77091;SDS011;66032;48.252;11.638;2023-02-16T11:38:27;11.63;;;7.38;;
77091;SDS011;66032;48.252;11.638;2023-02-16T11:40:58;13.63;;;7.72;;
77091;SDS011;66032;48.252;11.638;2023-02-16T11:43:28;11.65;;;6.63;;
77091;SDS011;66032;48.252;11.638;2023-02-16T11:46:00;16.50;;;10.27;;
77091;SDS011;66032;48.252;11.638;2023-02-16T11:48:31;14.73;;;7.50;;
77091;SDS011;66032;48.252;11.638;2023-02-16T11:51:01;11.50;;;6.70;;
77091;SDS011;66032;48.252;11.638;2023-02-16T11:53:32;18.70;;;11.47;;
77091;SDS011;66032;48.252;11.638;2023-02-16T11:59:33;10.80;;;6.03;;
77091;SDS011;66032;48.252;11.638;2023-02-16T12:10:11;9.07;;;5.13;;
77091;SDS011;66032;48.252;11.638;2023-02-16T12:15:24;10.15;;;5.78;;
77091;SDS011;66032;48.252;11.638;2023-02-16T12:23:20;12.80;;;6.07;;
77091;SDS011;66032;48.252;11.638;2023-02-16T12:31:40;9.63;;;5.43;;
77091;SDS011;66032;48.252;11.638;2023-02-16T12:39:34;9.93;;;5.28;;
77091;SDS011;66032;48.252;11.638;2023-02-16T12:45:18;9.38;;;4.55;;
77091;SDS011;66032;48.252;11.638;2023-02-16T12:47:54;7.57;;;4.10;;
77091;SDS011;66032;48.252;11.638;2023-02-16T12:50:41;8.52;;;4.72;;
77091;SDS011;66032;48.252;11.638;2023-02-16T12:55:43;7.10;;;3.80;;
77091;SDS011;66032;48.252;11.638;2023-02-16T12:58:39;8.85;;;3.88;;
77091;SDS011;66032;48.252;11.638;2023-02-16T13:01:17;9.05;;;4.65;;
77091;SDS011;66032;48.252;11.638;2023-02-16T13:06:31;7.43;;;3.75;;
77091;SDS011;66032;48.252;11.638;2023-02-16T13:14:38;8.65;;;4.45;;
77091;SDS011;66032;48.252;11.638;2023-02-16T13:17:15;13.63;;;7.90;;
77091;SDS011;66032;48.252;11.638;2023-02-16T13:19:46;10.15;;;5.40;;
77091;SDS011;66032;48.252;11.638;2023-02-16T13:22:18;13.93;;;5.40;;
77091;SDS011;66032;48.252;11.638;2023-02-16T13:44:45;11.80;;;6.05;;
77091;SDS011;66032;48.252;11.638;2023-02-16T13:47:15;22.40;;;12.45;;
77091;SDS011;66032;48.252;11.638;2023-02-16T13:49:47;12.02;;;6.55;;
77091;SDS011;66032;48.252;11.638;2023-02-16T13:52:32;10.93;;;5.00;;
77091;SDS011;66032;48.252;11.638;2023-02-16T13:55:20;14.20;;;8.05;;
77091;SDS011;66032;48.252;11.638;2023-02-16T14:00:50;7.65;;;4.05;;
77091;SDS011;66032;48.252;11.638;2023-02-16T14:05:50;9.25;;;4.47;;
77091;SDS011;66032;48.252;11.638;2023-02-16T14:08:37;8.45;;;5.03;;
77091;SDS011;66032;48.252;11.638;2023-02-16T14:11:06;15.88;;;8.45;;
77091;SDS011;66032;48.252;11.638;2023-02-16T14:21:47;9.45;;;4.70;;
77091;SDS011;66032;48.252;11.638;2023-02-16T14:27:02;8.30;;;4.00;;
77091;SDS011;66032;48.252;11.638;2023-02-16T14:29:35;8.68;;;4.10;;
77091;SDS011;66032;48.252;11.638;2023-02-16T14:34:35;7.40;;;3.92;;
77091;SDS011;66032;48.252;11.638;2023-02-16T14:39:43;8.40;;;3.88;;
77091;SDS011;66032;48.252;11.638;2023-02-16T14:42:33;6.18;;;3.42;;
77091;SDS011;66032;48.252;11.638;2023-02-16T14:50:30;7.35;;;4.00;;
77091;SDS011;66032;48.252;11.638;2023-02-16T14:59:13;8.75;;;3.85;;
77091;SDS011;66032;48.252;11.638;2023-02-16T15:02:21;5.65;;;3.33;;
77091;SDS011;66032;48.252;11.638;2023-02-16T15:04:53;6.63;;;3.40;;
77091;SDS011;66032;48.252;11.638;2023-02-16T15:07:21;6.57;;;3.13;;
77091;SDS011;66032;48.252;11.638;2023-02-16T15:09:53;6.78;;;3.28;;
77091;SDS011;66032;48.252;11.638;2023-02-16T15:12:36;6.40;;;3.40;;
77091;SDS011;66032;48.252;11.638;2023-02-16T15:15:06;8.13;;;4.40;;
77091;SDS011;66032;48.252;11.638;2023-02-16T15:17:39;9.60;;;4.95;;
77091;SDS011;66032;48.252;11.638;2023-02-16T15:22:54;7.63;;;3.85;;
77091;SDS011;66032;48.252;11.638;2023-02-16T15:28:02;8.77;;;5.05;;
77091;SDS011;66032;48.252;11.638;2023-02-16T15:30:37;8.90;;;3.90;;
77091;SDS011;66032;48.252;11.638;2023-02-16T15:33:11;5.30;;;2.85;;
77091;SDS011;66032;48.252;11.638;2023-02-16T15:36:04;5.80;;;2.92;;
77091;SDS011;66032;48.252;11.638;2023-02-16T15:38:37;8.07;;;3.55;;
77091;SDS011;66032;48.252;11.638;2023-02-16T15:41:08;7.13;;;3.53;;
77091;SDS011;66032;48.252;11.638;2023-02-16T15:49:12;9.98;;;4.88;;
77091;SDS011;66032;48.252;11.638;2023-02-16T15:51:45;8.80;;;4.35;;
77091;SDS011;66032;48.252;11.638;2023-02-16T15:54:25;9.23;;;4.40;;
77091;SDS011;66032;48.252;11.638;2023-02-16T15:56:56;8.10;;;3.67;;
77091;SDS011;66032;48.252;11.638;2023-02-16T16:02:03;8.07;;;3.85;;
77091;SDS011;66032;48.252;11.638;2023-02-16T16:04:39;7.50;;;3.28;;
77091;SDS011;66032;48.252;11.638;2023-02-16T16:07:32;6.82;;;3.17;;
77091;SDS011;66032;48.252;11.638;2023-02-16T16:10:06;6.22;;;3.58;;
77091;SDS011;66032;48.252;11.638;2023-02-16T16:12:41;7.63;;;3.67;;
77091;SDS011;66032;48.252;11.638;2023-02-16T16:15:13;5.65;;;3.33;;
77091;SDS011;66032;48.252;11.638;2023-02-16T16:17:46;4.70;;;2.60;;
77091;SDS011;66032;48.252;11.638;2023-02-16T16:20:23;8.88;;;3.40;;
77091;SDS011;66032;48.252;11.638;2023-02-16T16:25:50;5.72;;;2.42;;
77091;SDS011;66032;48.252;11.638;2023-02-16T16:34:01;6.43;;;2.42;;
77091;SDS011;66032;48.252;11.638;2023-02-16T16:41:43;5.90;;;2.92;;
77091;SDS011;66032;48.252;11.638;2023-02-16T16:44:27;5.65;;;2.72;;
77091;SDS011;66032;48.252;11.638;2023-02-16T16:50:36;4.93;;;2.50;;
77091;SDS011;66032;48.252;11.638;2023-02-16T16:52:45;5.20;;;2.40;;
77091;SDS011;66032;48.252;11.638;2023-02-16T16:57:45;6.55;;;2.83;;
77091;SDS011;66032;48.252;11.638;2023-02-16T17:00:13;5.13;;;2.53;;
77091;SDS011;66032;48.252;11.638;2023-02-16T17:02:41;4.90;;;2.33;;
77091;SDS011;66032;48.252;11.638;2023-02-16T17:05:08;6.10;;;2.72;;
77091;SDS011;66032;48.252;11.638;2023-02-16T17:07:36;6.70;;;2.92;;
77091;SDS011;66032;48.252;11.638;2023-02-16T17:10:03;9.50;;;3.80;;
77091;SDS011;66032;48.252;11.638;2023-02-16T17:12:31;8.35;;;3.13;;
77091;SDS011;66032;48.252;11.638;2023-02-16T17:15:02;6.97;;;3.65;;
77091;SDS011;66032;48.252;11.638;2023-02-16T17:17:31;8.38;;;3.17;;
77091;SDS011;66032;48.252;11.638;2023-02-16T17:19:59;4.57;;;2.42;;
77091;SDS011;66032;48.252;11.638;2023-02-16T17:22:26;5.85;;;2.70;;
77091;SDS011;66032;48.252;11.638;2023-02-16T17:24:53;6.63;;;3.08;;
77091;SDS011;66032;48.252;11.638;2023-02-16T17:27:21;9.23;;;3.90;;
77091;SDS011;66032;48.252;11.638;2023-02-16T17:29:48;8.82;;;3.17;;
77091;SDS011;66032;48.252;11.638;2023-02-16T17:32:15;5.97;;;2.90;;
77091;SDS011;66032;48.252;11.638;2023-02-16T17:34:43;4.88;;;2.38;;
77091;SDS011;66032;48.252;11.638;2023-02-16T17:37:13;7.53;;;3.20;;
77091;SDS011;66032;48.252;11.638;2023-02-16T17:39:40;5.60;;;2.80;;
77091;SDS011;66032;48.252;11.638;2023-02-16T17:42:10;6.20;;;3.42;;
77091;SDS011;66032;48.252;11.638;2023-02-16T17:44:38;5.78;;;2.78;;
77091;SDS011;66032;48.252;11.638;2023-02-16T17:47:05;5.88;;;2.60;;
77091;SDS011;66032;48.252;11.638;2023-02-16T17:49:39;4.70;;;2.45;;
77091;SDS011;66032;48.252;11.638;2023-02-16T17:52:10;6.15;;;3.08;;
77091;SDS011;66032;48.252;11.638;2023-02-16T17:54:38;5.43;;;2.65;;
77091;SDS011;66032;48.252;11.638;2023-02-16T17:57:05;4.97;;;2.50;;
77091;SDS011;66032;48.252;11.638;2023-02-16T17:59:32;5.72;;;2.60;;
77091;SDS011;66032;48.252;11.638;2023-02-16T18:01:59;4.57;;;2.22;;
77091;SDS011;66032;48.252;11.638;2023-02-16T18:04:26;6.57;;;2.90;;
77091;SDS011;66032;48.252;11.638;2023-02-16T18:06:54;8.32;;;3.33;;
77091;SDS011;66032;48.252;11.638;2023-02-16T18:09:21;8.02;;;3.53;;
77091;SDS011;66032;48.252;11.638;2023-02-16T18:11:50;6.93;;;3.45;;